Time;durP1;ratioP1;P1;durP2;ratioP2;P2;SDS_P1;SDS_P2;PMS_P1;PMS_P2;Temp;Humidity;BMP_temperature;BMP_pressure;BME280_temperature;BME280_humidity;BME280_pressure;Samples;Min_cycle;Max_cycle;Signal;HPM_P1;HPM_P2
2021/09/15 00:02:22;;;;;;;0.57;0.57;;;16.50;99.90;;;;;;4416561;32;20078;-89
2021/09/15 00:04:48;;;;;;;0.60;0.60;;;16.50;99.90;;;;;;4416804;32;20065;-90
2021/09/15 00:07:14;;;;;;;0.60;0.60;;;16.50;99.90;;;;;;4416084;32;20049;-90
2021/09/15 00:09:39;;;;;;;0.80;0.55;;;16.40;99.90;;;;;;4416618;32;20127;-88
2021/09/15 00:12:05;;;;;;;0.62;0.62;;;16.40;99.90;;;;;;4416072;32;20090;-89
2021/09/15 00:14:31;;;;;;;1.23;1.12;;;16.40;99.90;;;;;;4416665;32;20086;-88
2021/09/15 00:16:57;;;;;;;0.45;0.45;;;16.40;99.90;;;;;;4415898;32;20125;-88
2021/09/15 00:19:22;;;;;;;0.57;0.57;;;16.40;99.90;;;;;;4415726;32;20474;-89
2021/09/15 00:21:48;;;;;;;12.85;1.50;;;16.40;99.90;;;;;;4415738;32;20128;-89
2021/09/15 00:24:14;;;;;;;0.50;0.47;;;16.40;99.90;;;;;;4415353;32;20086;-89
2021/09/15 00:26:39;;;;;;;9.88;1.92;;;16.40;99.90;;;;;;4415611;32;20153;-88
2021/09/15 00:29:05;;;;;;;0.55;0.37;;;16.30;99.90;;;;;;4407417;32;20429;-89
2021/09/15 00:31:32;;;;;;;1.25;0.52;;;16.30;99.90;;;;;;4399886;32;20067;-89
2021/09/15 00:33:57;;;;;;;1.35;0.68;;;16.40;99.90;;;;;;4400721;32;20121;-89
2021/09/15 00:36:23;;;;;;;0.70;0.70;;;16.30;99.90;;;;;;4410817;32;20187;-89
2021/09/15 00:38:49;;;;;;;0.73;0.73;;;16.30;99.90;;;;;;4416250;32;20164;-88
2021/09/15 00:41:14;;;;;;;0.88;0.82;;;16.30;99.90;;;;;;4415395;32;20062;-88
2021/09/15 00:44:02;;;;;;;0.40;0.40;;;16.40;99.90;;;;;;4416485;32;20177;-89
2021/09/15 00:46:28;;;;;;;0.35;0.35;;;16.40;99.90;;;;;;4414391;32;20070;-90
2021/09/15 00:48:54;;;;;;;10.75;1.00;;;16.40;99.90;;;;;;4415757;32;20129;-90
2021/09/15 00:51:20;;;;;;;0.80;0.50;;;16.30;99.90;;;;;;4414459;32;20073;-89
2021/09/15 00:53:47;;;;;;;0.37;0.37;;;16.40;99.90;;;;;;4416246;32;20127;-89
2021/09/15 00:56:12;;;;;;;0.50;0.50;;;16.40;99.90;;;;;;4411696;32;20075;-90
2021/09/15 00:58:38;;;;;;;0.50;0.50;;;16.30;99.90;;;;;;4404880;32;20074;-90
2021/09/15 01:01:05;;;;;;;0.80;0.55;;;16.40;99.90;;;;;;4415145;32;20502;-89
2021/09/15 01:03:31;;;;;;;2.62;0.60;;;16.40;99.90;;;;;;4415403;32;20430;-89
2021/09/15 01:05:57;;;;;;;1.45;0.60;;;16.40;99.90;;;;;;4415719;32;20077;-90
2021/09/15 01:08:24;;;;;;;0.57;0.57;;;16.40;99.90;;;;;;4415399;32;20070;-90
2021/09/15 01:10:50;;;;;;;0.40;0.40;;;16.40;99.90;;;;;;4415960;32;20073;-89
2021/09/15 01:13:16;;;;;;;1.05;0.70;;;16.40;99.90;;;;;;4415618;32;20077;-90
2021/09/15 01:15:42;;;;;;;3.15;0.45;;;16.40;99.90;;;;;;4416151;32;20401;-89
2021/09/15 01:18:17;;;;;;;0.40;0.40;;;16.40;99.90;;;;;;4415801;32;20087;-90
2021/09/15 01:20:42;;;;;;;0.65;0.65;;;16.40;99.90;;;;;;4415469;32;20096;-90
2021/09/15 01:23:08;;;;;;;0.50;0.50;;;16.50;99.90;;;;;;4415547;32;20117;-89
2021/09/15 01:25:34;;;;;;;0.60;0.60;;;16.40;99.90;;;;;;4415143;32;20058;-88
2021/09/15 01:28:00;;;;;;;2.28;1.42;;;16.40;99.90;;;;;;4414251;32;20082;-90
2021/09/15 01:30:26;;;;;;;0.80;0.80;;;16.40;99.90;;;;;;4402590;32;20419;-89
2021/09/15 01:32:52;;;;;;;1.73;0.73;;;16.50;99.90;;;;;;4400809;32;20405;-90
2021/09/15 01:35:20;;;;;;;0.60;0.60;;;16.40;99.90;;;;;;4399440;32;20077;-89
2021/09/15 01:37:46;;;;;;;2.58;1.00;;;16.40;99.90;;;;;;4399649;32;20069;-90
2021/09/15 01:40:12;;;;;;;0.62;0.62;;;16.50;99.90;;;;;;4399855;32;20392;-89
2021/09/15 01:42:39;;;;;;;0.57;0.55;;;16.40;99.90;;;;;;4399419;32;20480;-88
2021/09/15 01:45:09;;;;;;;1.05;0.52;;;16.50;99.90;;;;;;4399254;32;20082;-89
2021/09/15 01:47:35;;;;;;;0.80;0.80;;;16.50;99.90;;;;;;4400292;32;20067;-88
2021/09/15 01:50:00;;;;;;;1.98;0.95;;;16.50;99.90;;;;;;4400313;32;20420;-89
2021/09/15 01:52:26;;;;;;;3.10;1.15;;;16.50;99.90;;;;;;4400044;32;20487;-89
2021/09/15 01:54:53;;;;;;;0.45;0.45;;;16.40;99.90;;;;;;4399018;32;20544;-90
2021/09/15 01:57:18;;;;;;;1.17;0.60;;;16.50;99.90;;;;;;4399680;32;20077;-89
2021/09/15 01:59:44;;;;;;;0.88;0.68;;;16.50;99.90;;;;;;4405556;32;20073;-89
2021/09/15 02:02:11;;;;;;;0.80;0.70;;;16.50;99.90;;;;;;4414595;32;20113;-89
2021/09/15 02:04:38;;;;;;;0.45;0.45;;;16.50;99.90;;;;;;4415847;32;20094;-89
2021/09/15 02:07:07;;;;;;;2.42;0.70;;;16.40;99.90;;;;;;4417794;32;20073;-89
2021/09/15 02:09:37;;;;;;;0.60;0.60;;;16.40;99.90;;;;;;4418407;32;20447;-90
2021/09/15 02:12:04;;;;;;;2.95;0.57;;;16.40;99.90;;;;;;4417253;32;20129;-88
2021/09/15 02:14:33;;;;;;;0.70;0.70;;;16.40;99.90;;;;;;4416969;32;20408;-88
2021/09/15 02:17:01;;;;;;;0.32;0.32;;;16.30;99.90;;;;;;4417946;32;20069;-89
2021/09/15 02:19:35;;;;;;;0.68;0.65;;;16.40;99.90;;;;;;4416094;32;20146;-89
2021/09/15 02:22:02;;;;;;;0.50;0.50;;;16.30;99.90;;;;;;4415847;32;20233;-88
2021/09/15 02:24:28;;;;;;;0.85;0.70;;;16.30;99.90;;;;;;4416618;32;20062;-89
2021/09/15 02:26:55;;;;;;;0.77;0.77;;;16.30;99.90;;;;;;4416834;32;20074;-87
2021/09/15 02:29:22;;;;;;;0.50;0.50;;;16.30;99.90;;;;;;4416657;32;20065;-89
2021/09/15 02:31:49;;;;;;;5.30;2.15;;;16.30;99.90;;;;;;4417242;32;20113;-89
2021/09/15 02:34:15;;;;;;;1.23;0.85;;;16.30;99.90;;;;;;4417164;32;20082;-90
2021/09/15 02:36:44;;;;;;;1.40;0.47;;;16.30;99.90;;;;;;4417397;32;20136;-90
2021/09/15 02:39:10;;;;;;;2.00;0.60;;;16.30;99.90;;;;;;4417415;32;20095;-90
2021/09/15 02:41:36;;;;;;;0.70;0.70;;;16.30;99.90;;;;;;4417552;32;20287;-88
2021/09/15 02:44:02;;;;;;;1.70;1.10;;;16.30;99.90;;;;;;4417212;32;20144;-89
2021/09/15 02:46:31;;;;;;;1.23;0.85;;;16.30;99.90;;;;;;4417957;32;20417;-88
2021/09/15 02:49:00;;;;;;;1.30;0.75;;;16.30;99.90;;;;;;4417522;32;20116;-89
2021/09/15 02:51:31;;;;;;;2.87;1.35;;;16.30;99.90;;;;;;4415987;32;20077;-89
2021/09/15 02:53:56;;;;;;;0.40;0.40;;;16.30;99.90;;;;;;4416038;32;20101;-89
2021/09/15 02:56:22;;;;;;;0.52;0.52;;;16.20;99.90;;;;;;4416940;32;20069;-89
2021/09/15 02:58:48;;;;;;;1.00;0.73;;;16.20;99.90;;;;;;4415676;32;20121;-89
2021/09/15 03:01:15;;;;;;;1.95;0.62;;;16.20;99.90;;;;;;4416096;32;20388;-89
2021/09/15 03:03:42;;;;;;;1.02;0.68;;;16.30;99.90;;;;;;4416540;32;20074;-90
2021/09/15 03:06:08;;;;;;;0.50;0.50;;;16.30;99.90;;;;;;4416600;32;20536;-89
2021/09/15 03:08:35;;;;;;;0.52;0.52;;;16.20;99.90;;;;;;4416385;32;20116;-89
2021/09/15 03:11:02;;;;;;;3.40;0.75;;;16.10;99.90;;;;;;4415039;32;20093;-89
2021/09/15 03:13:29;;;;;;;1.10;0.82;;;16.20;99.90;;;;;;4416432;32;20123;-89
2021/09/15 03:15:55;;;;;;;0.70;0.70;;;16.10;99.90;;;;;;4415683;32;20522;-89
2021/09/15 03:18:23;;;;;;;2.55;0.50;;;16.20;99.90;;;;;;4416371;32;20073;-90
2021/09/15 03:20:49;;;;;;;1.12;0.70;;;16.20;99.90;;;;;;4416107;32;20499;-89
2021/09/15 03:23:19;;;;;;;0.80;0.80;;;16.20;99.90;;;;;;4419872;32;20077;-87
2021/09/15 03:25:47;;;;;;;1.55;0.88;;;16.10;99.90;;;;;;4417975;32;20070;-89
2021/09/15 03:28:16;;;;;;;0.65;0.60;;;16.10;99.90;;;;;;4416755;32;20388;-90
2021/09/15 03:30:48;;;;;;;1.00;0.93;;;16.10;99.90;;;;;;4416175;32;20121;-90
2021/09/15 03:33:14;;;;;;;1.10;0.80;;;16.00;99.90;;;;;;4419791;32;20038;-89
2021/09/15 03:35:41;;;;;;;1.23;0.90;;;16.00;99.90;;;;;;4405632;32;20112;-88
2021/09/15 03:38:07;;;;;;;0.77;0.77;;;16.00;99.90;;;;;;4403468;32;20086;-89
2021/09/15 03:40:33;;;;;;;0.88;0.75;;;16.00;99.90;;;;;;4401778;32;20086;-90
2021/09/15 03:43:03;;;;;;;0.57;0.57;;;16.00;99.90;;;;;;4403247;32;20512;-90
2021/09/15 03:45:32;;;;;;;1.70;0.73;;;16.00;99.90;;;;;;4403813;32;20159;-90
2021/09/15 03:48:02;;;;;;;1.00;0.88;;;16.00;99.90;;;;;;4401164;32;20129;-90
2021/09/15 03:50:28;;;;;;;1.33;1.02;;;15.90;99.90;;;;;;4401691;32;20097;-89
2021/09/15 03:52:54;;;;;;;0.93;0.82;;;16.00;99.90;;;;;;4401111;32;20540;-90
2021/09/15 03:55:22;;;;;;;2.50;0.95;;;16.00;99.90;;;;;;4400282;32;20087;-89
2021/09/15 03:57:48;;;;;;;0.85;0.85;;;16.00;99.90;;;;;;4398061;32;20102;-89
2021/09/15 04:00:14;;;;;;;0.60;0.60;;;16.00;99.90;;;;;;4401057;32;20134;-90
2021/09/15 04:02:42;;;;;;;0.95;0.80;;;15.90;99.90;;;;;;4401299;32;20062;-90
2021/09/15 04:05:15;;;;;;;0.93;0.93;;;15.90;99.90;;;;;;4389958;32;20449;-88
2021/09/15 04:07:47;;;;;;;1.17;0.88;;;15.90;99.90;;;;;;4402193;32;20070;-90
2021/09/15 04:10:14;;;;;;;2.37;0.80;;;15.90;99.90;;;;;;4406152;32;20512;-88
2021/09/15 04:12:40;;;;;;;5.00;0.77;;;15.80;99.90;;;;;;4415475;32;20079;-90
2021/09/15 04:15:11;;;;;;;0.82;0.60;;;15.80;99.90;;;;;;4414558;32;20522;-90
2021/09/15 04:17:39;;;;;;;1.25;0.85;;;15.80;99.90;;;;;;4416438;32;20547;-90
2021/09/15 04:20:05;;;;;;;1.42;0.85;;;15.90;99.90;;;;;;4418465;32;20066;-90
2021/09/15 04:22:32;;;;;;;2.33;0.50;;;16.00;99.90;;;;;;4403452;32;20124;-90
2021/09/15 04:31:22;;;;;;;0.70;0.70;;;15.90;99.90;;;;;;4400992;32;20065;-88
2021/09/15 04:33:08;;;;;;;1.20;0.80;;;16.00;99.90;;;;;;4399762;32;20146;-89
2021/09/15 04:35:39;;;;;;;0.70;0.70;;;16.00;99.90;;;;;;4402481;32;20101;-88
2021/09/15 04:38:10;;;;;;;0.50;0.50;;;16.00;99.90;;;;;;4402819;32;20074;-89
2021/09/15 04:40:36;;;;;;;4.85;1.50;;;16.00;99.90;;;;;;4409126;32;20077;-89
2021/09/15 04:43:05;;;;;;;0.98;0.93;;;16.00;99.90;;;;;;4419585;32;20082;-89
2021/09/15 04:45:32;;;;;;;0.70;0.70;;;15.90;99.90;;;;;;4417658;32;20065;-88
2021/09/15 04:47:58;;;;;;;3.33;1.40;;;15.90;99.90;;;;;;4419767;32;20090;-88
2021/09/15 04:50:24;;;;;;;1.20;1.00;;;16.00;99.90;;;;;;4420413;32;20089;-88
2021/09/15 04:52:49;;;;;;;1.98;0.85;;;16.00;99.90;;;;;;4412209;32;20070;-87
2021/09/15 04:55:24;;;;;;;1.12;0.93;;;16.00;99.90;;;;;;4401963;32;20074;-89
2021/09/15 04:57:51;;;;;;;0.80;0.80;;;16.00;99.90;;;;;;4401122;32;20078;-90
2021/09/15 05:00:20;;;;;;;0.80;0.80;;;16.00;99.90;;;;;;4402656;32;20081;-88
2021/09/15 05:03:06;;;;;;;1.60;1.50;;;16.00;99.90;;;;;;4401869;32;20070;-89
2021/09/15 05:05:32;;;;;;;3.60;0.68;;;16.00;99.90;;;;;;4395187;32;20121;-88
2021/09/15 05:07:59;;;;;;;1.33;0.70;;;16.00;99.90;;;;;;4389698;32;20297;-89
2021/09/15 05:10:26;;;;;;;2.83;1.20;;;16.00;99.90;;;;;;4400057;32;20073;-89
2021/09/15 05:12:55;;;;;;;1.08;0.82;;;16.00;99.90;;;;;;4392041;32;20401;-88
2021/09/15 05:15:24;;;;;;;1.33;0.93;;;16.00;99.90;;;;;;4378300;32;20118;-89
2021/09/15 05:17:57;;;;;;;0.88;0.62;;;16.00;99.90;;;;;;4388263;32;20138;-90
2021/09/15 05:20:24;;;;;;;1.17;0.80;;;16.00;99.90;;;;;;4404334;32;20077;-87
2021/09/15 05:23:05;;;;;;;;;;;;;;;;;;;;;
2021/09/15 05:25:52;;;;;;;1.98;0.88;;;16.00;99.90;;;;;;4386427;32;20117;-89
2021/09/15 05:28:29;;;;;;;1.02;0.93;;;16.00;99.90;;;;;;4389547;32;20086;-89
2021/09/15 05:31:39;;;;;;;1.80;1.42;;;16.10;99.90;;;;;;4394168;32;20073;-89
2021/09/15 05:34:42;;;;;;;3.53;1.12;;;16.10;99.90;;;;;;4399305;32;20413;-89
2021/09/15 05:40:34;;;;;;;3.00;0.70;;;16.10;99.90;;;;;;4394356;32;20081;-75
2021/09/15 05:42:59;;;;;;;1.42;0.93;;;16.20;99.90;;;;;;4398781;32;20085;-76
2021/09/15 05:45:25;;;;;;;0.80;0.75;;;16.30;99.90;;;;;;4393839;32;20090;-75
2021/09/15 05:47:51;;;;;;;1.02;0.70;;;16.30;99.90;;;;;;4398965;32;20110;-75
2021/09/15 05:50:17;;;;;;;1.55;0.80;;;16.30;99.90;;;;;;4398927;32;20396;-76
2021/09/15 05:52:44;;;;;;;1.85;1.27;;;16.30;99.90;;;;;;4395939;32;20083;-76
2021/09/15 05:55:12;;;;;;;0.90;0.90;;;16.30;99.90;;;;;;4398381;32;20872;-75
2021/09/15 05:57:38;;;;;;;1.33;0.68;;;16.40;99.90;;;;;;4392572;32;20172;-76
2021/09/15 06:00:05;;;;;;;0.98;0.77;;;16.40;99.90;;;;;;4392194;32;20065;-76
2021/09/15 06:02:31;;;;;;;1.15;1.05;;;16.40;99.90;;;;;;4386489;32;20098;-75
2021/09/15 06:04:57;;;;;;;0.77;0.75;;;16.40;99.90;;;;;;4386027;32;20871;-75
2021/09/15 06:07:23;;;;;;;2.42;0.65;;;16.50;99.90;;;;;;4396009;32;20203;-75
2021/09/15 06:09:49;;;;;;;1.17;1.05;;;16.50;99.90;;;;;;4392811;32;20421;-76
2021/09/15 06:12:14;;;;;;;2.10;0.65;;;16.60;99.90;;;;;;4388855;32;20536;-75
2021/09/15 06:14:40;;;;;;;2.47;1.75;;;16.60;99.90;;;;;;4392280;32;20066;-75
2021/09/15 06:17:06;;;;;;;0.77;0.77;;;16.60;99.90;;;;;;4391810;32;20075;-75
2021/09/15 06:19:32;;;;;;;2.60;1.55;;;16.60;99.90;;;;;;4390577;32;20091;-75
2021/09/15 06:21:58;;;;;;;0.70;0.68;;;16.60;99.90;;;;;;4389280;32;20925;-75
2021/09/15 06:24:24;;;;;;;5.70;1.02;;;16.80;99.90;;;;;;4390348;32;81757;-75
2021/09/15 06:26:51;;;;;;;0.73;0.60;;;16.70;99.90;;;;;;4391972;32;20655;-75
2021/09/15 06:29:18;;;;;;;0.88;0.73;;;16.70;99.90;;;;;;4392674;32;20074;-75
2021/09/15 06:31:44;;;;;;;1.00;0.70;;;16.70;99.90;;;;;;4385804;32;20057;-75
2021/09/15 06:34:11;;;;;;;0.95;0.75;;;16.80;99.90;;;;;;4390679;32;20065;-75
2021/09/15 06:36:39;;;;;;;0.50;0.50;;;16.80;99.90;;;;;;4392135;32;20079;-75
2021/09/15 06:39:06;;;;;;;2.30;0.80;;;16.80;99.90;;;;;;4401674;32;20101;-76
2021/09/15 06:41:31;;;;;;;0.70;0.70;;;16.90;99.90;;;;;;4403785;32;20708;-74
2021/09/15 06:43:57;;;;;;;0.60;0.60;;;16.90;99.90;;;;;;4400296;32;20062;-74
2021/09/15 06:46:23;;;;;;;1.30;0.73;;;16.90;99.90;;;;;;4401313;32;20095;-74
2021/09/15 06:48:49;;;;;;;0.95;0.75;;;17.00;99.90;;;;;;4405433;32;20066;-76
2021/09/15 06:51:16;;;;;;;3.08;0.95;;;17.10;99.90;;;;;;4410695;32;20089;-76
2021/09/15 06:53:42;;;;;;;1.85;0.82;;;17.10;99.90;;;;;;4401414;32;20105;-74
2021/09/15 06:56:08;;;;;;;0.60;0.60;;;17.10;99.90;;;;;;4401536;32;20054;-75
2021/09/15 06:58:34;;;;;;;2.97;0.80;;;17.30;99.90;;;;;;4406631;32;20053;-76
2021/09/15 07:01:00;;;;;;;2.65;0.70;;;17.30;99.90;;;;;;4408768;32;20169;-75
2021/09/15 07:03:25;;;;;;;0.47;0.47;;;17.30;99.90;;;;;;4400418;32;20181;-75
2021/09/15 07:05:51;;;;;;;0.65;0.65;;;17.30;99.90;;;;;;4406764;32;20534;-75
2021/09/15 07:08:17;;;;;;;1.95;1.42;;;17.40;99.90;;;;;;4404853;32;20066;-75
2021/09/15 07:10:42;;;;;;;0.80;0.80;;;17.40;99.90;;;;;;4401395;32;20077;-75
2021/09/15 07:13:10;;;;;;;1.30;0.98;;;17.50;99.90;;;;;;4403392;32;20093;-75
2021/09/15 07:15:36;;;;;;;0.45;0.45;;;17.60;99.90;;;;;;4408336;32;20181;-76
2021/09/15 07:18:02;;;;;;;0.52;0.52;;;17.70;99.90;;;;;;4400264;32;20073;-75
2021/09/15 07:20:27;;;;;;;3.42;1.25;;;17.80;99.90;;;;;;4403939;32;20116;-75
2021/09/15 07:22:53;;;;;;;0.52;0.52;;;17.90;99.90;;;;;;4402314;32;20170;-75
2021/09/15 07:25:19;;;;;;;0.65;0.65;;;17.90;99.90;;;;;;4400697;32;20101;-75
2021/09/15 07:27:46;;;;;;;0.68;0.43;;;18.00;99.90;;;;;;4400564;32;20900;-75
2021/09/15 07:30:12;;;;;;;1.75;0.80;;;18.20;99.90;;;;;;4401260;32;20125;-75
2021/09/15 07:32:38;;;;;;;0.52;0.50;;;18.20;99.90;;;;;;4400867;32;20102;-75
2021/09/15 07:35:06;;;;;;;1.98;0.73;;;18.30;99.90;;;;;;4399231;32;21307;-74
2021/09/15 07:37:31;;;;;;;0.60;0.60;;;18.40;99.90;;;;;;4400878;32;20153;-74
2021/09/15 07:39:57;;;;;;;0.68;0.47;;;18.50;99.90;;;;;;4404274;32;20758;-75
2021/09/15 07:42:24;;;;;;;1.05;0.57;;;18.50;99.90;;;;;;4401338;32;20103;-75
2021/09/15 07:44:51;;;;;;;0.98;0.80;;;18.60;99.90;;;;;;4402045;32;20058;-75
2021/09/15 07:47:16;;;;;;;0.60;0.55;;;18.70;99.90;;;;;;4400671;32;20078;-75
2021/09/15 07:49:44;;;;;;;1.65;0.85;;;18.70;99.90;;;;;;4394578;32;20155;-76
2021/09/15 07:52:10;;;;;;;0.73;0.73;;;18.70;99.90;;;;;;4397236;32;20090;-75
2021/09/15 07:54:36;;;;;;;0.98;0.68;;;18.80;99.90;;;;;;4404013;32;20151;-76
2021/09/15 07:57:04;;;;;;;0.50;0.50;;;18.90;99.90;;;;;;4407191;32;20065;-76
2021/09/15 07:59:30;;;;;;;0.50;0.50;;;19.00;99.90;;;;;;4404712;32;20116;-76
2021/09/15 08:01:57;;;;;;;0.60;0.52;;;19.10;99.90;;;;;;4404126;32;20081;-75
2021/09/15 08:04:23;;;;;;;0.93;0.75;;;19.20;99.90;;;;;;4403534;32;20066;-76
2021/09/15 08:06:48;;;;;;;0.60;0.60;;;19.20;99.90;;;;;;4404967;32;20084;-77
2021/09/15 08:09:15;;;;;;;2.08;1.00;;;19.30;99.90;;;;;;4404538;32;20168;-76
2021/09/15 08:11:40;;;;;;;0.95;0.73;;;19.40;99.90;;;;;;4400252;32;20098;-77
2021/09/15 08:14:07;;;;;;;3.53;0.82;;;19.50;99.90;;;;;;4404583;32;20082;-76
2021/09/15 08:16:34;;;;;;;2.17;0.50;;;19.60;99.90;;;;;;4404489;32;20074;-78
2021/09/15 08:19:01;;;;;;;0.62;0.62;;;19.60;99.90;;;;;;4403500;32;20097;-77
2021/09/15 08:21:28;;;;;;;1.12;0.90;;;19.70;99.90;;;;;;4401999;32;20168;-77
2021/09/15 08:23:54;;;;;;;1.35;0.80;;;19.80;99.90;;;;;;4398288;32;20086;-76
2021/09/15 08:26:20;;;;;;;1.00;0.60;;;19.90;99.90;;;;;;4399303;32;20077;-77
2021/09/15 08:28:48;;;;;;;0.60;0.60;;;19.90;99.90;;;;;;4406157;32;20483;-77
2021/09/15 08:31:16;;;;;;;2.33;1.12;;;20.00;99.90;;;;;;4406484;32;20065;-78
2021/09/15 08:33:42;;;;;;;3.33;0.85;;;20.00;99.90;;;;;;4408551;32;20103;-77
2021/09/15 08:36:07;;;;;;;0.52;0.52;;;20.10;99.90;;;;;;4405099;32;20634;-78
2021/09/15 08:38:34;;;;;;;1.50;1.10;;;20.10;99.90;;;;;;4404194;32;20693;-77
2021/09/15 08:41:00;;;;;;;0.52;0.52;;;20.20;99.90;;;;;;4402134;32;20085;-77
2021/09/15 08:43:25;;;;;;;9.32;1.73;;;20.40;99.90;;;;;;4399953;32;20168;-79
2021/09/15 08:45:54;;;;;;;0.68;0.55;;;20.50;99.90;;;;;;4402088;32;20116;-77
2021/09/15 08:48:21;;;;;;;0.50;0.50;;;20.60;99.90;;;;;;4403299;32;20058;-77
2021/09/15 08:50:49;;;;;;;1.00;0.52;;;20.60;99.90;;;;;;4398091;32;20120;-77
2021/09/15 08:53:16;;;;;;;0.65;0.60;;;20.70;99.90;;;;;;4403489;32;20058;-77
2021/09/15 08:55:46;;;;;;;0.68;0.68;;;20.80;99.90;;;;;;4402559;32;20073;-77
2021/09/15 08:58:14;;;;;;;0.50;0.50;;;20.90;99.90;;;;;;4400805;32;20069;-77
2021/09/15 09:00:42;;;;;;;0.80;0.62;;;21.10;99.90;;;;;;4401232;32;20086;-76
2021/09/15 09:03:08;;;;;;;0.95;0.62;;;21.10;99.90;;;;;;4400269;32;20074;-77
2021/09/15 09:05:35;;;;;;;3.83;0.95;;;21.20;99.90;;;;;;4404740;32;20078;-78
2021/09/15 09:08:00;;;;;;;3.33;1.12;;;21.10;99.90;;;;;;4401406;32;20069;-76
2021/09/15 09:10:33;;;;;;;1.15;0.88;;;21.20;99.90;;;;;;4403754;32;20516;-77
2021/09/15 09:12:58;;;;;;;0.50;0.50;;;21.20;99.90;;;;;;4396810;32;20137;-75
2021/09/15 09:15:26;;;;;;;0.70;0.70;;;21.20;99.90;;;;;;4401353;32;20089;-79
2021/09/15 09:17:57;;;;;;;1.83;0.40;;;21.20;99.90;;;;;;4384971;32;20097;-77
2021/09/15 09:20:28;;;;;;;0.98;0.93;;;21.30;99.90;;;;;;4398151;32;20113;-75
2021/09/15 09:23:14;;;;;;;0.40;0.40;;;21.30;99.90;;;;;;4395154;32;20090;-75
2021/09/15 09:25:57;;;;;;;0.40;0.40;;;21.40;99.90;;;;;;4396029;32;20599;-76
2021/09/15 09:28:33;;;;;;;2.22;0.60;;;21.40;99.90;;;;;;4395615;32;20162;-76
2021/09/15 09:31:01;;;;;;;1.55;1.05;;;21.50;99.90;;;;;;4400209;32;20094;-74
2021/09/15 09:33:28;;;;;;;0.60;0.60;;;21.60;99.90;;;;;;4399311;32;20113;-74
2021/09/15 09:35:56;;;;;;;0.40;0.40;;;21.60;99.90;;;;;;4404570;32;20322;-75
2021/09/15 09:38:25;;;;;;;1.95;0.85;;;21.80;99.90;;;;;;4406110;32;20129;-76
2021/09/15 09:40:57;;;;;;;0.37;0.37;;;21.80;99.90;;;;;;4401345;32;20577;-75
2021/09/15 09:43:24;;;;;;;0.40;0.40;;;21.80;99.90;;;;;;4401225;32;20069;-75
2021/09/15 09:45:50;;;;;;;0.65;0.55;;;21.80;99.90;;;;;;4402836;32;20098;-76
2021/09/15 09:48:41;;;;;;;1.05;0.60;;;21.90;99.90;;;;;;4406582;32;20117;-75
2021/09/15 09:51:21;;;;;;;;;;;22.10;99.90;;;;;;4407256;32;20082;-76
2021/09/15 09:53:47;;;;;;;0.30;0.30;;;22.30;99.90;;;;;;4404683;32;20688;-77
2021/09/15 09:56:13;;;;;;;0.47;0.47;;;22.40;99.90;;;;;;4398763;32;20143;-75
2021/09/15 09:58:43;;;;;;;0.25;0.25;;;22.40;99.90;;;;;;4396017;32;20172;-75
2021/09/15 10:01:12;;;;;;;0.67;0.60;;;22.40;99.90;;;;;;4403347;32;20468;-76
2021/09/15 10:03:40;;;;;;;0.30;0.30;;;22.40;99.90;;;;;;4400477;32;20534;-75
2021/09/15 10:06:06;;;;;;;0.60;0.60;;;22.40;99.90;;;;;;4407327;32;20066;-75
2021/09/15 10:08:34;;;;;;;4.18;1.55;;;22.50;99.90;;;;;;4401817;32;20531;-75
2021/09/15 10:11:00;;;;;;;0.32;0.32;;;22.70;99.90;;;;;;4401312;32;20058;-76
2021/09/15 10:13:25;;;;;;;1.35;0.60;;;22.80;99.90;;;;;;4401441;32;20073;-77
2021/09/15 10:15:58;;;;;;;0.52;0.52;;;22.90;99.90;;;;;;4399555;32;20145;-77
2021/09/15 10:18:24;;;;;;;0.52;0.40;;;23.00;99.90;;;;;;4400301;32;20106;-77
2021/09/15 10:20:53;;;;;;;0.40;0.40;;;23.20;99.90;;;;;;4400575;32;20606;-76
2021/09/15 10:23:40;;;;;;;0.35;0.35;;;23.30;99.90;;;;;;4402680;32;20081;-76
2021/09/15 10:26:30;;;;;;;24.95;0.82;;;23.30;99.90;;;;;;4396802;32;20061;-76
2021/09/15 10:29:18;;;;;;;0.73;0.47;;;23.20;99.90;;;;;;4398958;32;20070;-76
2021/09/15 10:31:56;;;;;;;0.50;0.43;;;23.20;99.90;;;;;;4388300;32;20086;-76
2021/09/15 10:34:39;;;;;;;1.60;0.50;;;23.20;99.90;;;;;;4406799;32;20198;-76
2021/09/15 10:37:27;;;;;;;0.68;0.65;;;23.10;99.90;;;;;;4400406;32;20066;-77
2021/09/15 10:39:55;;;;;;;1.25;0.57;;;23.10;99.90;;;;;;4393359;32;20070;-76
2021/09/15 10:42:39;;;;;;;0.75;0.75;;;23.10;99.90;;;;;;4401506;32;20118;-77
2021/09/15 10:45:16;;;;;;;0.75;0.35;;;22.90;99.90;;;;;;4405762;32;20082;-77
2021/09/15 10:47:48;;;;;;;0.35;0.35;;;22.90;99.90;;;;;;4387730;32;20689;-77
2021/09/15 10:50:33;;;;;;;0.30;0.30;;;23.00;99.90;;;;;;4406243;32;20173;-77
2021/09/15 10:53:17;;;;;;;7.72;0.57;;;23.00;99.90;;;;;;4400582;32;20087;-77
2021/09/15 10:55:50;;;;;;;1.15;0.32;;;23.10;99.90;;;;;;4393328;32;20645;-77
2021/09/15 10:58:18;;;;;;;0.30;0.30;;;23.10;99.90;;;;;;4402761;32;20097;-76
2021/09/15 11:00:54;;;;;;;0.50;0.50;;;23.20;99.90;;;;;;4400184;32;20214;-76
2021/09/15 11:03:24;;;;;;;0.30;0.30;;;23.30;99.90;;;;;;4397232;32;20132;-76
2021/09/15 11:05:51;;;;;;;0.85;0.47;;;23.30;99.90;;;;;;4396406;32;20074;-76
2021/09/15 11:08:22;;;;;;;0.47;0.47;;;23.40;99.90;;;;;;4399436;32;20514;-77
2021/09/15 11:10:48;;;;;;;0.65;0.65;;;23.40;99.90;;;;;;4393710;32;20081;-76
2021/09/15 11:13:35;;;;;;;0.52;0.40;;;23.50;99.90;;;;;;4399937;32;20097;-76
2021/09/15 11:16:24;;;;;;;0.25;0.25;;;23.60;99.90;;;;;;4386584;32;20058;-77
2021/09/15 11:18:54;;;;;;;0.55;0.55;;;23.60;99.90;;;;;;4386964;32;20093;-76
2021/09/15 11:21:20;;;;;;;1.37;0.37;;;23.70;99.90;;;;;;4403134;32;20062;-76
2021/09/15 11:23:45;;;;;;;0.20;0.20;;;23.70;99.90;;;;;;4399724;32;20486;-76
2021/09/15 11:26:11;;;;;;;1.30;0.75;;;23.80;99.90;;;;;;4400219;32;20102;-76
2021/09/15 11:28:36;;;;;;;0.30;0.30;;;23.90;99.90;;;;;;4399456;32;20077;-77
2021/09/15 11:31:03;;;;;;;1.20;1.02;;;23.80;99.90;;;;;;4398370;32;20208;-77
2021/09/15 11:33:31;;;;;;;2.35;1.05;;;23.90;99.90;;;;;;4401971;32;20081;-77
2021/09/15 11:36:00;;;;;;;0.40;0.35;;;24.00;99.90;;;;;;4400683;32;20058;-77
2021/09/15 11:38:28;;;;;;;9.13;1.55;;;24.00;99.90;;;;;;4401720;32;20569;-76
2021/09/15 11:41:15;;;;;;;0.20;0.20;;;24.00;99.90;;;;;;4389100;32;20077;-76
2021/09/15 11:43:45;;;;;;;0.50;0.50;;;24.00;99.90;;;;;;4385335;32;20097;-77
2021/09/15 11:46:11;;;;;;;0.50;0.50;;;24.00;99.90;;;;;;4401244;32;20512;-77
2021/09/15 11:48:38;;;;;;;0.52;0.52;;;24.00;99.90;;;;;;4400487;32;20062;-77
2021/09/15 11:51:21;;;;;;;0.20;0.20;;;24.00;99.90;;;;;;4401265;32;20519;-78
2021/09/15 11:53:52;;;;;;;0.50;0.50;;;23.80;99.90;;;;;;4404187;32;20117;-77
2021/09/15 11:56:31;;;;;;;0.60;0.43;;;23.80;99.90;;;;;;4409072;32;20128;-78
2021/09/15 11:58:57;;;;;;;0.57;0.40;;;23.70;99.90;;;;;;4414901;32;20059;-77
2021/09/15 12:01:24;;;;;;;0.35;0.35;;;23.70;99.90;;;;;;4408181;32;20124;-77
2021/09/15 12:03:51;;;;;;;0.30;0.30;;;23.60;99.90;;;;;;4412119;32;20069;-77
2021/09/15 12:06:17;;;;;;;0.47;0.47;;;23.60;99.90;;;;;;4404649;32;20061;-77
2021/09/15 12:08:42;;;;;;;0.57;0.57;;;23.60;99.90;;;;;;4409839;32;20198;-76
2021/09/15 12:11:08;;;;;;;0.40;0.40;;;23.60;99.90;;;;;;4402879;32;20121;-77
2021/09/15 12:13:34;;;;;;;0.40;0.40;;;23.60;99.90;;;;;;4402604;32;20062;-76
2021/09/15 12:16:00;;;;;;;25.08;3.35;;;23.60;99.90;;;;;;4405567;32;20364;-77
2021/09/15 12:18:47;;;;;;;2.05;0.80;;;23.50;99.90;;;;;;4405577;32;20287;-76
2021/09/15 12:21:18;;;;;;;0.50;0.50;;;23.50;99.90;;;;;;4397842;32;20078;-76
2021/09/15 12:23:45;;;;;;;1.95;0.70;;;23.60;99.90;;;;;;4402488;32;20365;-77
2021/09/15 12:26:11;;;;;;;0.30;0.30;;;23.60;99.90;;;;;;4401730;32;20065;-76
2021/09/15 12:28:37;;;;;;;0.40;0.40;;;23.50;99.90;;;;;;4407372;32;20393;-76
2021/09/15 12:31:04;;;;;;;0.90;0.50;;;23.50;99.90;;;;;;4399991;32;20276;-76
2021/09/15 12:33:36;;;;;;;0.25;0.25;;;23.50;99.90;;;;;;4406978;32;20558;-77
2021/09/15 12:36:19;;;;;;;0.55;0.52;;;23.40;99.90;;;;;;4400654;32;20069;-75
2021/09/15 12:38:56;;;;;;;0.25;0.25;;;23.40;99.90;;;;;;4402189;32;20095;-79
2021/09/15 12:41:23;;;;;;;0.30;0.30;;;23.30;99.90;;;;;;4393091;32;20062;-76
2021/09/15 12:43:48;;;;;;;3.65;1.55;;;23.20;99.90;;;;;;4403484;32;20085;-77
2021/09/15 12:46:30;;;;;;;0.28;0.28;;;23.10;99.90;;;;;;4409358;32;20086;-76
2021/09/15 12:48:56;;;;;;;0.50;0.50;;;22.80;99.90;;;;;;4405502;32;20113;-77
2021/09/15 12:51:24;;;;;;;0.40;0.40;;;22.50;99.90;;;;;;4406834;32;20124;-77
2021/09/15 12:53:50;;;;;;;0.60;0.60;;;22.10;99.90;;;;;;4407864;32;20062;-76
2021/09/15 12:56:17;;;;;;;0.60;0.60;;;21.60;99.90;;;;;;4406730;32;20070;-75
2021/09/15 12:58:43;;;;;;;0.90;0.80;;;21.40;99.90;;;;;;4405280;32;20094;-75
2021/09/15 13:01:18;;;;;;;1.42;0.82;;;21.10;99.90;;;;;;4398751;32;20090;-76
2021/09/15 13:03:44;;;;;;;1.40;0.88;;;20.90;99.90;;;;;;4399998;32;20126;-76
2021/09/15 13:06:14;;;;;;;1.42;0.50;;;20.90;99.90;;;;;;4399310;32;20119;-76